Alexandria, Nebraska
Current Conditions -  °F | °C
As of 4:55 PM on Wednesday 26 Nov 2014 (Local Time) from KHJH Reporting Station
Clear Clear  
Wind Chill: 23°   Ceiling: Unl
Heat Index: 32°   Visibility: 10mi
Dew Point: 20°   Wind: 12mph
Humidity: 62%   Direction: 340°NNW
Pressure: 30.32"   Gusts: 17mph
Location:  40.25°N, 97.39°W
Report Text: KHJH 262255Z AUTO 34010G15KT 10SM CLR 00/M07 A3032 RMK AO2 T10021067
Loading
Personal Weather Stations






























Interactive Weather Map New forecast layout! Learn more

10-Day Weather Forecast

Advertisements
Track Severe Weather on mobile